createdAt,value
2022-09-15T00:01:46.854Z,96107.65
2022-09-15T00:04:17.672Z,96106.52
2022-09-15T00:06:48.304Z,96112.25
2022-09-15T00:09:15.988Z,96114.90
2022-09-15T00:11:45.043Z,96112.21
2022-09-15T00:14:22.184Z,96104.64
2022-09-15T00:16:52.076Z,96093.23
2022-09-15T00:19:20.142Z,96082.79
2022-09-15T00:21:47.557Z,96085.95
2022-09-15T00:24:14.774Z,96082.75
2022-09-15T00:26:42.169Z,96087.01
2022-09-15T00:29:10.684Z,96092.11
2022-09-15T00:31:38.392Z,96089.30
2022-09-15T00:34:07.820Z,96086.27
2022-09-15T00:36:34.991Z,96087.98
2022-09-15T00:39:02.448Z,96088.23
2022-09-15T00:41:32.794Z,96077.95
2022-09-15T00:44:05.332Z,96071.88
2022-09-15T00:47:15.260Z,96075.17
2022-09-15T00:49:47.159Z,96076.90
2022-09-15T00:52:37.121Z,96074.33
2022-09-15T00:55:20.752Z,96074.80
2022-09-15T00:57:56.680Z,96073.96
2022-09-15T01:00:28.894Z,96060.61
2022-09-15T01:02:57.312Z,96059.20
2022-09-15T01:05:41.681Z,96055.20
2022-09-15T01:08:13.782Z,96042.16
2022-09-15T01:10:41.101Z,96049.59
2022-09-15T01:13:13.453Z,96054.56
2022-09-15T01:15:58.982Z,96042.14
2022-09-15T01:18:28.835Z,96034.04
2022-09-15T01:21:01.332Z,96047.08
2022-09-15T01:24:01.788Z,96046.11
2022-09-15T01:26:37.223Z,96037.60
2022-09-15T01:29:22.983Z,96032.53
2022-09-15T01:32:38.755Z,96030.63
2022-09-15T01:35:08.669Z,96021.40
2022-09-15T01:37:41.947Z,96026.86
2022-09-15T01:40:11.905Z,96024.80
2022-09-15T01:42:42.125Z,96017.70
2022-09-15T01:45:17.318Z,96014.39
2022-09-15T01:47:47.792Z,96021.38
2022-09-15T01:50:20.377Z,96012.25
2022-09-15T01:52:51.092Z,96013.02
2022-09-15T01:55:28.309Z,96006.64
2022-09-15T01:57:55.261Z,95999.45
2022-09-15T02:00:22.120Z,95999.01
2022-09-15T02:03:00.273Z,95996.31
2022-09-15T02:05:41.103Z,95988.56
2022-09-15T02:08:24.971Z,95973.35
2022-09-15T02:11:03.965Z,95970.98
2022-09-15T02:13:38.618Z,95962.65
2022-09-15T02:16:14.752Z,95969.49
2022-09-15T02:18:47.259Z,95966.55
2022-09-15T02:21:36.826Z,95963.08
2022-09-15T02:24:10.462Z,95956.72
2022-09-15T02:26:39.905Z,95966.08
2022-09-15T02:29:12.722Z,95954.77
2022-09-15T02:31:41.806Z,95961.67
2022-09-15T02:34:17.267Z,95969.75
2022-09-15T02:36:45.174Z,95968.52
2022-09-15T02:39:17.467Z,95976.54
2022-09-15T02:41:44.998Z,95973.30
2022-09-15T02:44:12.187Z,95966.27
2022-09-15T02:46:39.209Z,95959.33
2022-09-15T02:49:07.173Z,95947.61
2022-09-15T02:51:34.154Z,95936.52
2022-09-15T02:54:01.296Z,95930.40
2022-09-15T02:56:28.236Z,95927.72
2022-09-15T02:58:55.184Z,95921.67
2022-09-15T03:01:34.023Z,95936.02
2022-09-15T03:04:02.764Z,95932.62
2022-09-15T03:06:33.975Z,95929.98
2022-09-15T03:09:04.769Z,95917.06
2022-09-15T03:11:33.341Z,95916.75
2022-09-15T03:14:05.625Z,95916.55
2022-09-15T03:16:34.344Z,95913.26
2022-09-15T03:19:01.481Z,95921.75
2022-09-15T03:21:29.832Z,95928.20
2022-09-15T03:23:58.388Z,95922.79
2022-09-15T03:26:25.577Z,95912.97
2022-09-15T03:28:52.970Z,95917.38
2022-09-15T03:31:20.351Z,95909.37
2022-09-15T03:33:47.813Z,95909.41
2022-09-15T03:36:15.372Z,95909.31
2022-09-15T03:38:42.252Z,95904.89
2022-09-15T03:41:11.527Z,95901.09
2022-09-15T03:43:39.711Z,95903.70
2022-09-15T03:46:08.313Z,95899.20
2022-09-15T03:48:35.902Z,95899.29
2022-09-15T03:51:05.270Z,95886.55
2022-09-15T03:53:38.500Z,95883.29
2022-09-15T03:56:08.489Z,95885.90
2022-09-15T03:58:35.341Z,95885.56
2022-09-15T04:01:02.480Z,95876.90
2022-09-15T04:03:31.239Z,95876.84
2022-09-15T04:05:59.248Z,95871.87
2022-09-15T04:08:26.292Z,95869.85
2022-09-15T04:10:54.549Z,95860.17
2022-09-15T04:13:26.658Z,95861.45
2022-09-15T04:16:04.578Z,95865.68
2022-09-15T04:18:32.692Z,95876.25
2022-09-15T04:21:01.448Z,95871.52
2022-09-15T04:23:28.435Z,95865.10
2022-09-15T04:25:59.837Z,95847.75
2022-09-15T04:28:27.855Z,95845.77
2022-09-15T04:31:12.489Z,95844.42
2022-09-15T04:33:41.266Z,95854.04
2022-09-15T04:36:12.611Z,95857.09
2022-09-15T04:38:40.043Z,95858.78
2022-09-15T04:41:06.875Z,95869.89
2022-09-15T04:43:34.513Z,95873.61
2022-09-15T04:46:10.766Z,95872.48
2022-09-15T04:48:37.900Z,95876.11
2022-09-15T04:51:07.377Z,95884.70
2022-09-15T04:53:35.215Z,95883.70
2022-09-15T04:56:07.687Z,95878.78
2022-09-15T04:58:40.292Z,95874.66
2022-09-15T05:01:13.169Z,95869.12
2022-09-15T05:03:41.181Z,95842.46
2022-09-15T05:06:12.782Z,95838.66
2022-09-15T05:08:40.684Z,95843.08
2022-09-15T05:11:11.322Z,95848.95
2022-09-15T05:13:40.171Z,95851.46
2022-09-15T05:16:14.848Z,95854.84
2022-09-15T05:18:45.300Z,95855.31
2022-09-15T05:21:22.595Z,95856.61
2022-09-15T05:23:51.344Z,95857.83
2022-09-15T05:26:21.367Z,95859.60
2022-09-15T05:28:48.916Z,95863.80
2022-09-15T05:31:20.567Z,95867.48
2022-09-15T05:33:49.222Z,95862.65
2022-09-15T05:36:18.085Z,95867.76
2022-09-15T05:38:44.987Z,95860.33
2022-09-15T05:41:18.050Z,95854.02
2022-09-15T05:43:50.808Z,95849.40
2022-09-15T05:46:18.819Z,95848.85
2022-09-15T05:48:46.864Z,95842.08
2022-09-15T05:51:43.677Z,95844.40
2022-09-15T05:54:10.663Z,95844.84
2022-09-15T05:56:37.571Z,95851.51
2022-09-15T05:59:04.608Z,95859.80
2022-09-15T06:01:31.683Z,95861.66
2022-09-15T06:03:59.000Z,95870.63
2022-09-15T06:06:26.817Z,95864.81
2022-09-15T06:08:58.340Z,95874.88
2022-09-15T06:11:31.519Z,95878.36
2022-09-15T06:13:59.959Z,95874.52
2022-09-15T06:16:27.123Z,95880.54
2022-09-15T06:18:58.082Z,95895.48
2022-09-15T06:21:36.000Z,95885.51
2022-09-15T06:24:06.443Z,95879.31
2022-09-15T06:26:41.309Z,95888.27
2022-09-15T06:29:11.683Z,95894.37
2022-09-15T06:31:39.134Z,95906.73
2022-09-15T06:34:06.188Z,95919.45
2022-09-15T06:36:33.084Z,95928.66
2022-09-15T06:38:59.998Z,95936.71
2022-09-15T06:41:31.110Z,95934.41
2022-09-15T06:44:14.491Z,95931.73
2022-09-15T06:46:41.402Z,95935.84
2022-09-15T06:49:08.363Z,95933.45
2022-09-15T06:51:35.808Z,95930.33
2022-09-15T06:54:03.787Z,95934.05
2022-09-15T06:56:35.850Z,95937.34
2022-09-15T06:59:05.361Z,95951.70
2022-09-15T07:01:37.200Z,95953.52
2022-09-15T07:04:06.110Z,95950.93
2022-09-15T07:09:16.191Z,95964.58
2022-09-15T07:11:43.126Z,95970.96
2022-09-15T07:14:11.755Z,95975.13
2022-09-15T07:16:38.940Z,95967.69
2022-09-15T07:19:06.176Z,95974.86
2022-09-15T07:21:33.661Z,95981.12
2022-09-15T07:24:15.203Z,95989.02
2022-09-15T07:26:42.119Z,95983.99
2022-09-15T07:29:09.189Z,95976.88
2022-09-15T07:31:38.167Z,95974.10
2022-09-15T07:34:06.244Z,95984.45
2022-09-15T07:36:33.315Z,95986.52
2022-09-15T07:41:42.729Z,95994.95
2022-09-15T07:44:12.647Z,96019.54
2022-09-15T07:46:39.540Z,96018.00
2022-09-15T07:49:07.666Z,96016.73
2022-09-15T07:51:34.689Z,96018.42
2022-09-15T07:54:01.634Z,96021.06
2022-09-15T07:56:28.795Z,96028.08
2022-09-15T07:58:56.512Z,96032.27
2022-09-15T08:01:24.186Z,96028.39
2022-09-15T08:04:00.994Z,96030.81
2022-09-15T08:06:28.705Z,96044.17
2022-09-15T08:09:00.444Z,96055.95
2022-09-15T08:11:28.932Z,96051.55
2022-09-15T08:13:55.795Z,96049.63
2022-09-15T08:16:24.548Z,96057.66
2022-09-15T08:21:34.709Z,96056.95
2022-09-15T08:24:01.998Z,96068.33
2022-09-15T08:26:30.461Z,96074.09
2022-09-15T08:28:57.990Z,96074.95
2022-09-15T08:31:28.262Z,96083.79
2022-09-15T08:33:56.812Z,96085.98
2022-09-15T08:39:25.350Z,96080.59
2022-09-15T08:44:47.161Z,96078.30
2022-09-15T08:47:24.982Z,96075.70
2022-09-15T08:50:22.776Z,96072.89
2022-09-15T08:54:32.888Z,96071.73
2022-09-15T08:56:37.004Z,96063.96
2022-09-15T08:59:04.176Z,96064.12
2022-09-15T09:02:17.726Z,96059.98
2022-09-15T09:05:10.684Z,96062.23
2022-09-15T09:07:53.461Z,96067.99
2022-09-15T09:10:39.100Z,96073.85
2022-09-15T09:13:23.712Z,96077.54
2022-09-15T09:16:34.787Z,96074.67
2022-09-15T09:19:10.380Z,96080.20
2022-09-15T09:22:05.141Z,96085.24
2022-09-15T09:24:48.690Z,96089.22
2022-09-15T09:27:21.083Z,96086.66
2022-09-15T09:29:51.568Z,96087.73
2022-09-15T09:32:26.978Z,96088.73
2022-09-15T09:35:34.107Z,96092.01
2022-09-15T09:38:01.951Z,96096.34
2022-09-15T09:40:32.135Z,96089.19
2022-09-15T09:42:59.732Z,96083.17
2022-09-15T09:45:31.435Z,96078.65
2022-09-15T09:48:21.564Z,96081.64
2022-09-15T09:50:50.081Z,96081.73
2022-09-15T09:53:28.299Z,96087.05
2022-09-15T09:56:16.738Z,96087.58
2022-09-15T09:58:44.378Z,96091.13
2022-09-15T10:01:14.356Z,96090.44
2022-09-15T10:03:42.926Z,96092.63
2022-09-15T10:06:24.310Z,96088.08
2022-09-15T10:09:05.412Z,96081.13
2022-09-15T10:11:43.560Z,96089.92
2022-09-15T10:14:21.234Z,96094.48
2022-09-15T10:17:09.008Z,96077.40
2022-09-15T10:19:48.106Z,96073.73
2022-09-15T10:22:31.151Z,96072.20
2022-09-15T10:25:00.581Z,96065.63
2022-09-15T10:27:27.734Z,96072.08
2022-09-15T10:29:55.514Z,96064.65
2022-09-15T10:32:31.194Z,96064.10
2022-09-15T10:35:06.721Z,96063.84
2022-09-15T10:37:45.221Z,96064.62
2022-09-15T10:40:38.212Z,96074.48
2022-09-15T10:43:35.189Z,96069.29
2022-09-15T10:46:12.369Z,96069.61
2022-09-15T10:49:22.645Z,96067.69
2022-09-15T10:52:19.348Z,96063.71
2022-09-15T10:54:59.387Z,96066.27
2022-09-15T11:00:12.176Z,96067.44
2022-09-15T11:02:54.899Z,96061.66
2022-09-15T11:05:27.891Z,96059.55
2022-09-15T11:08:05.148Z,96051.44
2022-09-15T11:10:57.349Z,96038.14
2022-09-15T11:13:50.523Z,96034.41
2022-09-15T11:16:38.059Z,96027.60
2022-09-15T11:19:21.319Z,96026.38
2022-09-15T11:22:08.928Z,96017.52
2022-09-15T11:25:10.955Z,96016.80
2022-09-15T11:28:02.036Z,96011.11
2022-09-15T11:30:41.619Z,96000.28
2022-09-15T11:36:42.691Z,95998.71
2022-09-15T11:39:15.721Z,95997.88
2022-09-15T11:41:56.739Z,96001.63
2022-09-15T11:44:27.591Z,96003.28
2022-09-15T11:47:29.939Z,96001.33
2022-09-15T11:50:03.505Z,96008.67
2022-09-15T11:52:44.001Z,96001.84
2022-09-15T11:55:26.647Z,96000.65
2022-09-15T11:57:59.392Z,96007.15
2022-09-15T12:00:26.432Z,96006.67
2022-09-15T12:03:13.429Z,96000.83
2022-09-15T12:05:52.509Z,96006.17
2022-09-15T12:08:46.969Z,96003.94
2022-09-15T12:11:30.327Z,96006.77
2022-09-15T12:13:59.305Z,96001.48
2022-09-15T12:16:28.441Z,95997.09
2022-09-15T12:19:11.421Z,95996.58
2022-09-15T12:21:41.070Z,96004.54
2022-09-15T12:24:11.088Z,96000.89
2022-09-15T12:26:38.291Z,96003.13
2022-09-15T12:29:27.101Z,95997.83
2022-09-15T12:32:29.437Z,95989.63
2022-09-15T12:34:58.236Z,95986.23
2022-09-15T12:37:39.351Z,95989.85
2022-09-15T12:40:38.914Z,95997.23
2022-09-15T12:43:31.182Z,95994.73
2022-09-15T12:46:01.091Z,95988.52
2022-09-15T12:48:33.577Z,95982.83
2022-09-15T12:51:10.542Z,95982.55
2022-09-15T12:53:52.263Z,95987.08
2022-09-15T12:56:26.120Z,95979.83
2022-09-15T12:58:53.921Z,95976.77
2022-09-15T13:01:24.676Z,95972.83
2022-09-15T13:03:54.777Z,95976.42
2022-09-15T13:06:26.027Z,95974.59
2022-09-15T13:09:02.318Z,95972.45
2022-09-15T13:11:38.235Z,95964.24
2022-09-15T13:14:11.513Z,95955.80
2022-09-15T13:16:48.172Z,95946.70
2022-09-15T13:19:41.168Z,95936.91
2022-09-15T13:22:11.656Z,95944.39
2022-09-15T13:25:02.079Z,95951.14
2022-09-15T13:27:36.789Z,95944.36
2022-09-15T13:30:20.388Z,95936.92
2022-09-15T13:33:06.237Z,95941.00
2022-09-15T13:35:36.235Z,95936.74
2022-09-15T13:38:25.220Z,95938.95
2022-09-15T13:41:17.879Z,95939.88
2022-09-15T13:44:03.885Z,95931.09
2022-09-15T13:46:45.938Z,95930.06
2022-09-15T13:49:25.109Z,95930.20
2022-09-15T13:52:21.802Z,95941.96
2022-09-15T13:55:20.329Z,95936.92
2022-09-15T14:01:00.648Z,95924.21
2022-09-15T14:03:33.384Z,95927.52
2022-09-15T14:06:01.039Z,95929.66
2022-09-15T14:08:32.785Z,95927.71
2022-09-15T14:11:08.013Z,95930.18
2022-09-15T14:13:40.605Z,95925.77
2022-09-15T14:16:24.412Z,95928.74
2022-09-15T14:18:53.627Z,95922.30
2022-09-15T14:21:30.089Z,95911.35
2022-09-15T14:24:02.883Z,95911.13
2022-09-15T14:26:34.835Z,95903.15
2022-09-15T14:29:06.671Z,95899.13
2022-09-15T14:31:40.490Z,95885.25
2022-09-15T14:34:20.686Z,95878.10
2022-09-15T14:37:00.231Z,95880.35
2022-09-15T14:39:27.157Z,95883.39
2022-09-15T14:41:54.259Z,95880.01
2022-09-15T14:47:34.519Z,95867.77
2022-09-15T14:50:05.596Z,95867.84
2022-09-15T14:52:38.757Z,95870.49
2022-09-15T14:55:12.499Z,95870.48
2022-09-15T14:57:45.812Z,95869.58
2022-09-15T15:00:22.494Z,95867.82
2022-09-15T15:03:12.528Z,95870.66
2022-09-15T15:05:47.889Z,95871.07
2022-09-15T15:08:32.286Z,95871.78
2022-09-15T15:11:00.800Z,95876.37
2022-09-15T15:13:29.350Z,95874.45
2022-09-15T15:15:56.353Z,95874.48
2022-09-15T15:18:35.623Z,95870.00
2022-09-15T15:21:03.258Z,95870.54
2022-09-15T15:23:31.657Z,95875.50
2022-09-15T15:26:26.455Z,95870.69
2022-09-15T15:28:53.270Z,95864.42
2022-09-15T15:31:28.889Z,95862.86
2022-09-15T15:34:06.324Z,95862.29
2022-09-15T15:36:35.963Z,95862.77
2022-09-15T15:39:06.304Z,95866.88
2022-09-15T15:41:38.341Z,95872.30
2022-09-15T15:44:26.617Z,95872.84
2022-09-15T15:46:59.500Z,95873.77
2022-09-15T15:49:29.256Z,95872.02
2022-09-15T15:52:00.379Z,95870.86
2022-09-15T15:54:27.982Z,95867.96
2022-09-15T15:56:54.974Z,95860.11
2022-09-15T15:59:22.244Z,95864.42
2022-09-15T16:01:52.725Z,95862.16
2022-09-15T16:04:19.583Z,95857.23
2022-09-15T16:06:47.452Z,95853.86
2022-09-15T16:09:16.911Z,95854.87
2022-09-15T16:11:44.123Z,95848.68
2022-09-15T16:14:13.150Z,95846.79
2022-09-15T16:16:40.299Z,95836.50
2022-09-15T16:19:07.977Z,95838.50
2022-09-15T16:21:38.297Z,95834.41
2022-09-15T16:24:14.602Z,95843.27
2022-09-15T16:26:42.493Z,95842.34
2022-09-15T16:29:10.139Z,95840.44
2022-09-15T16:31:38.030Z,95841.47
2022-09-15T16:34:05.520Z,95834.46
2022-09-15T16:36:35.702Z,95835.89
2022-09-15T16:39:03.358Z,95832.08
2022-09-15T16:41:30.273Z,95834.85
2022-09-15T16:43:57.239Z,95836.96
2022-09-15T16:46:24.701Z,95836.27
2022-09-15T16:48:51.721Z,95836.17
2022-09-15T16:51:29.865Z,95838.95
2022-09-15T16:53:59.020Z,95847.65
2022-09-15T16:56:41.058Z,95853.56
2022-09-15T16:59:26.755Z,95849.71
2022-09-15T17:01:54.992Z,95845.80
2022-09-15T17:04:22.410Z,95841.69
2022-09-15T17:06:52.259Z,95846.41
2022-09-15T17:09:19.505Z,95850.58
2022-09-15T17:11:47.519Z,95852.13
2022-09-15T17:14:16.524Z,95856.59
2022-09-15T17:16:46.859Z,95863.07
2022-09-15T17:19:13.749Z,95856.83
2022-09-15T17:21:43.221Z,95852.42
2022-09-15T17:24:11.064Z,95850.63
2022-09-15T17:26:37.956Z,95858.10
2022-09-15T17:29:05.046Z,95862.05
2022-09-15T17:31:32.293Z,95862.09
2022-09-15T17:34:00.552Z,95855.63
2022-09-15T17:36:27.710Z,95858.23
2022-09-15T17:38:55.176Z,95852.89
2022-09-15T17:41:22.322Z,95846.98
2022-09-15T17:43:53.316Z,95846.42
2022-09-15T17:46:22.734Z,95852.35
2022-09-15T17:49:01.880Z,95845.77
2022-09-15T17:51:29.131Z,95841.39
2022-09-15T17:53:56.322Z,95828.95
2022-09-15T17:56:24.067Z,95820.46
2022-09-15T17:58:51.387Z,95808.56
2022-09-15T18:01:18.531Z,95801.29
2022-09-15T18:03:46.417Z,95801.17
2022-09-15T18:06:14.212Z,95793.92
2022-09-15T18:08:41.362Z,95794.15
2022-09-15T18:11:12.582Z,95800.48
2022-09-15T18:13:41.316Z,95801.57
2022-09-15T18:16:14.853Z,95802.07
2022-09-15T18:18:46.341Z,95796.84
2022-09-15T18:21:35.282Z,95800.80
2022-09-15T18:24:02.616Z,95804.20
2022-09-15T18:26:32.622Z,95802.83
2022-09-15T18:29:01.918Z,95808.23
2022-09-15T18:31:31.890Z,95808.02
2022-09-15T18:34:00.600Z,95802.45
2022-09-15T18:36:40.018Z,95803.12
2022-09-15T18:39:08.516Z,95811.94
2022-09-15T18:41:37.582Z,95814.04
2022-09-15T18:44:04.944Z,95806.20
2022-09-15T18:46:31.939Z,95801.52
2022-09-15T18:48:59.405Z,95793.43
2022-09-15T18:51:34.829Z,95788.87
2022-09-15T18:54:13.606Z,95786.82
2022-09-15T18:56:40.937Z,95787.88
2022-09-15T18:59:08.126Z,95776.35
2022-09-15T19:01:35.185Z,95769.74
2022-09-15T19:04:11.144Z,95772.58
2022-09-15T19:06:38.592Z,95774.22
2022-09-15T19:09:05.947Z,95773.41
2022-09-15T19:11:33.136Z,95779.92
2022-09-15T19:14:02.120Z,95770.98
2022-09-15T19:16:46.808Z,95768.84
2022-09-15T19:19:16.798Z,95768.15
2022-09-15T19:21:43.939Z,95770.02
2022-09-15T19:24:11.152Z,95765.34
2022-09-15T19:26:38.234Z,95773.41
2022-09-15T19:29:06.002Z,95775.97
2022-09-15T19:31:33.033Z,95784.75
2022-09-15T19:34:00.217Z,95784.40
2022-09-15T19:36:28.697Z,95780.77
2022-09-15T19:38:59.177Z,95776.78
2022-09-15T19:41:36.953Z,95775.30
2022-09-15T19:44:29.437Z,95778.23
2022-09-15T19:46:56.604Z,95781.77
2022-09-15T19:49:25.588Z,95770.67
2022-09-15T19:51:56.464Z,95773.16
2022-09-15T19:54:26.579Z,95774.85
2022-09-15T19:56:53.699Z,95775.73
2022-09-15T19:59:21.539Z,95777.67
2022-09-15T20:01:48.846Z,95771.42
2022-09-15T20:04:16.023Z,95766.27
2022-09-15T20:06:43.268Z,95766.36
2022-09-15T20:09:10.916Z,95759.87
2022-09-15T20:11:39.459Z,95760.52
2022-09-15T20:14:06.707Z,95761.51
2022-09-15T20:16:34.401Z,95763.34
2022-09-15T20:19:05.662Z,95765.80
2022-09-15T20:21:50.190Z,95764.52
2022-09-15T20:24:20.428Z,95763.35
2022-09-15T20:26:48.025Z,95760.23
2022-09-15T20:29:22.991Z,95762.75
2022-09-15T20:31:50.970Z,95769.45
2022-09-15T20:34:40.741Z,95767.63
2022-09-15T20:37:12.148Z,95775.64
2022-09-15T20:39:40.627Z,95773.16
2022-09-15T20:42:36.354Z,95776.10
2022-09-15T20:45:24.566Z,95777.00
2022-09-15T20:47:53.940Z,95773.27
2022-09-15T20:53:04.568Z,95775.55
2022-09-15T20:55:31.563Z,95777.86
2022-09-15T20:58:05.095Z,95789.61
2022-09-15T21:00:34.830Z,95791.66
2022-09-15T21:03:06.997Z,95782.98
2022-09-15T21:05:35.482Z,95791.29
2022-09-15T21:08:03.721Z,95795.67
2022-09-15T21:10:31.651Z,95795.91
2022-09-15T21:13:12.375Z,95797.23
2022-09-15T21:15:42.100Z,95798.85
2022-09-15T21:18:09.922Z,95795.45
2022-09-15T21:21:19.173Z,95796.71
2022-09-15T21:23:55.076Z,95794.38
2022-09-15T21:26:31.221Z,95799.58
2022-09-15T21:28:58.436Z,95805.30
2022-09-15T21:31:30.262Z,95806.55
2022-09-15T21:33:58.332Z,95812.43
2022-09-15T21:36:30.426Z,95809.89
2022-09-15T21:38:59.018Z,95811.25
2022-09-15T21:41:29.346Z,95813.21
2022-09-15T21:43:58.440Z,95812.82
2022-09-15T21:46:28.421Z,95810.22
2022-09-15T21:48:57.537Z,95804.38
2022-09-15T21:51:26.670Z,95803.98
2022-09-15T21:53:55.806Z,95806.09
2022-09-15T21:56:27.939Z,95805.00
2022-09-15T21:58:55.106Z,95804.45
2022-09-15T22:01:31.350Z,95810.11
2022-09-15T22:04:02.008Z,95821.45
2022-09-15T22:06:34.706Z,95816.55
2022-09-15T22:09:08.359Z,95817.64
2022-09-15T22:11:38.767Z,95823.08
2022-09-15T22:14:09.939Z,95821.67
2022-09-15T22:16:42.252Z,95809.86
2022-09-15T22:19:11.438Z,95819.58
2022-09-15T22:21:41.110Z,95823.89
2022-09-15T22:24:20.929Z,95829.16
2022-09-15T22:29:31.262Z,95819.08
2022-09-15T22:31:59.560Z,95822.62
2022-09-15T22:34:30.950Z,95824.44
2022-09-15T22:37:00.339Z,95817.42
2022-09-15T22:39:44.165Z,95819.33
2022-09-15T22:42:14.552Z,95809.95
2022-09-15T22:44:42.052Z,95811.18
2022-09-15T22:47:10.713Z,95811.90
2022-09-15T22:49:37.972Z,95813.58
2022-09-15T22:52:05.105Z,95807.38
2022-09-15T22:54:32.721Z,95808.20
2022-09-15T22:56:59.833Z,95810.96
2022-09-15T22:59:30.582Z,95809.42
2022-09-15T23:01:57.757Z,95811.07
2022-09-15T23:04:25.158Z,95808.61
2022-09-15T23:06:52.102Z,95812.82
2022-09-15T23:09:22.292Z,95821.39
2022-09-15T23:11:49.964Z,95823.38
2022-09-15T23:14:17.557Z,95820.02
2022-09-15T23:16:44.790Z,95817.48
2022-09-15T23:19:13.932Z,95809.99
2022-09-15T23:21:41.553Z,95812.79
2022-09-15T23:24:12.864Z,95812.19
2022-09-15T23:26:40.193Z,95808.64
2022-09-15T23:29:17.112Z,95809.77
2022-09-15T23:31:52.091Z,95809.59
2022-09-15T23:34:22.420Z,95812.39
2022-09-15T23:36:50.564Z,95814.67
2022-09-15T23:39:20.655Z,95820.39
2022-09-15T23:41:48.778Z,95825.75
2022-09-15T23:44:16.617Z,95818.60
2022-09-15T23:46:49.216Z,95810.91
2022-09-15T23:49:18.991Z,95811.95
2022-09-15T23:51:51.079Z,95801.97
2022-09-15T23:54:30.602Z,95799.05
2022-09-15T23:56:57.677Z,95799.13
2022-09-15T23:59:25.477Z,95792.10
